YMAV/AVV METAR and TAF weather

Enter ICAO airport designator
Station Type Date Time Source
YMAV METAR 2022/12/04 04:00 UTC NOAA

YMAV 040400Z AUTO 31015KT 9999 // NCD 34/09 Q1007 RF00.0/000.0


Station Type Date Time Source
YMAV Decoded METAR 2022/12/04 04:00 UTC NOAA

Avalon, Avalon Airport, Australia (YMAV) 38-02S 144-29E
Dec 03, 2022 - 11:00 PM EST / 2022.12.04 0400 UTC
Wind: from the NW (310 degrees) at 17 MPH (15 KT):0
Visibility: greater than 7 mile(s):0
Temperature: 93 F (34 C)
Dew Point: 48 F (9 C)
Relative Humidity: 21%
Pressure (altimeter): 29.74 in. Hg (1007 hPa)
ob: YMAV 040400Z AUTO 31015KT 9999 // NCD 34/09 Q1007 RF00.0/000.0
cycle: 4

Station Type Date Time Source
YMAV TAF 2022/12/03 18:12 UTC NOAA

TAF TAF
AMD YMAV 031709Z 0318/0418 05006KT CAVOK
BECMG 0322/0400 33016G26KT CAVOK
FM040300 31012KT CAVOK
FM041000 25007KT CAVOK
FM041400 25016G28KT 9999 -SHRA BKN015

Example: see airport list